Emerson, Canada
Current Conditions -  °F | °C
As of 9:54 PM on Friday 28 Nov 2014 (Local Time) from KHCO Reporting Station
Scattered Clouds Scattered Clouds  
Wind Chill:   Ceiling: Unl
Heat Index: 18°   Visibility: 10mi
Dew Point: 12°   Wind: 12mph
Humidity: 79%   Direction: 160°SSE
Pressure: 29.63"   Gusts: NA
Location:  49.01°N, 97.2°W
Report Text: KHCO 290354Z AUTO 16010KT 10SM SCT110 M08/M11 A2963 RMK AO2
Loading
Personal Weather Stations






























Interactive Weather Map New forecast layout! Learn more

10-Day Weather Forecast

Advertisements
Track Severe Weather on mobile